Time;durP1;ratioP1;P1;durP2;ratioP2;P2;SDS_P1;SDS_P2;PMS_P1;PMS_P2;Temp;Humidity;BMP_temperature;BMP_pressure;BME280_temperature;BME280_humidity;BME280_pressure;Samples;Min_cycle;Max_cycle;Signal;HPM_P1;HPM_P2
2023/07/07 00:00:31;;;;;;;4.57;4.17;;;20.70;68.90;;;;;;5043407;28;20455;-65
2023/07/07 00:02:59;;;;;;;6.90;4.17;;;20.70;68.90;;;;;;5059603;28;20569;-64
2023/07/07 00:05:29;;;;;;;5.57;5.00;;;20.60;69.10;;;;;;5036609;28;20982;-65
2023/07/07 00:07:58;;;;;;;5.00;4.50;;;20.40;69.40;;;;;;5048784;28;20477;-64
2023/07/07 00:10:26;;;;;;;4.30;3.90;;;20.40;69.60;;;;;;5045976;28;21042;-64
2023/07/07 00:12:54;;;;;;;4.83;4.33;;;20.20;70.00;;;;;;5048769;28;20459;-69
2023/07/07 00:15:22;;;;;;;7.50;4.93;;;20.20;70.10;;;;;;5048164;28;20837;-65
2023/07/07 00:17:51;;;;;;;6.30;4.10;;;20.20;70.10;;;;;;5035792;28;20952;-64
2023/07/07 00:20:21;;;;;;;4.57;4.17;;;20.10;70.40;;;;;;5034483;28;20494;-64
2023/07/07 00:22:51;;;;;;;5.67;3.93;;;19.90;70.60;;;;;;5034479;28;20967;-71
2023/07/07 00:25:19;;;;;;;4.87;4.47;;;19.90;70.90;;;;;;5049333;28;20463;-67
2023/07/07 00:27:47;;;;;;;5.13;4.50;;;19.70;71.40;;;;;;5059084;28;20465;-67
2023/07/07 00:30:16;;;;;;;4.53;4.13;;;19.70;71.60;;;;;;5050066;28;20478;-64
2023/07/07 00:32:44;;;;;;;7.47;5.40;;;19.60;71.80;;;;;;5042143;28;20971;-64
2023/07/07 00:35:12;;;;;;;5.63;4.67;;;19.60;72.00;;;;;;5042281;28;20787;-65
2023/07/07 00:37:40;;;;;;;5.80;5.20;;;19.60;71.90;;;;;;5040592;28;20993;-64
2023/07/07 00:40:11;;;;;;;4.33;4.03;;;19.60;71.80;;;;;;5020601;28;20466;-64
2023/07/07 00:42:40;;;;;;;5.00;4.60;;;19.60;72.00;;;;;;5044061;28;20537;-68
2023/07/07 00:45:15;;;;;;;5.63;4.60;;;19.60;71.80;;;;;;5040003;28;20993;-70
2023/07/07 00:47:58;;;;;;;5.80;5.20;;;19.60;71.80;;;;;;5045033;28;20861;-64
2023/07/07 00:50:29;;;;;;;4.70;4.30;;;19.60;71.70;;;;;;5037867;28;20500;-65
2023/07/07 00:52:58;;;;;;;8.20;4.37;;;19.50;71.90;;;;;;5039542;28;20459;-65
2023/07/07 00:55:41;;;;;;;5.93;4.30;;;19.50;71.90;;;;;;5038208;28;20494;-66
2023/07/07 00:58:12;;;;;;;4.47;4.10;;;19.50;72.00;;;;;;5045283;28;20472;-69
2023/07/07 01:00:45;;;;;;;6.93;4.20;;;19.50;72.00;;;;;;5036550;28;20484;-65
2023/07/07 01:03:22;;;;;;;4.73;4.33;;;19.50;71.80;;;;;;5034498;28;20494;-64
2023/07/07 01:05:53;;;;;;;4.20;3.80;;;19.50;71.60;;;;;;5021148;28;20468;-65
2023/07/07 01:08:22;;;;;;;6.10;4.13;;;19.50;71.40;;;;;;5034947;28;20842;-64
2023/07/07 01:10:51;;;;;;;5.43;4.63;;;19.40;71.60;;;;;;5040217;28;20460;-64
2023/07/07 01:13:20;;;;;;;4.30;3.90;;;19.40;71.80;;;;;;5039965;28;20548;-71
2023/07/07 01:15:55;;;;;;;4.60;4.20;;;19.30;72.00;;;;;;5042757;28;20470;-69
2023/07/07 01:18:36;;;;;;;6.70;4.07;;;19.20;72.30;;;;;;5046839;28;20465;-66
2023/07/07 01:21:12;;;;;;;5.27;4.77;;;19.00;72.80;;;;;;5039175;28;20468;-64
2023/07/07 01:24:00;;;;;;;5.40;4.90;;;19.00;72.90;;;;;;5022231;28;20472;-64
2023/07/07 01:26:58;;;;;;;8.30;4.70;;;18.90;73.30;;;;;;5030071;28;20461;-65
2023/07/07 01:29:55;;;;;;;5.30;4.53;;;18.80;73.80;;;;;;5040888;28;20504;-71
2023/07/07 01:32:28;;;;;;;5.90;4.77;;;18.60;74.40;;;;;;5022610;28;20460;-64
2023/07/07 01:34:59;;;;;;;6.20;4.70;;;18.60;74.70;;;;;;5017677;28;20954;-65
2023/07/07 01:37:27;;;;;;;4.40;4.00;;;18.60;74.70;;;;;;5034652;28;20491;-65
2023/07/07 01:39:57;;;;;;;5.93;4.80;;;18.60;74.80;;;;;;5034568;28;20934;-69
2023/07/07 01:42:34;;;;;;;5.23;4.83;;;18.60;74.50;;;;;;5020308;28;20479;-67
2023/07/07 01:45:07;;;;;;;7.00;5.03;;;18.70;74.20;;;;;;5045615;28;20545;-66
2023/07/07 01:47:39;;;;;;;8.70;4.60;;;18.80;73.70;;;;;;5057494;28;20463;-68
2023/07/07 01:50:13;;;;;;;5.53;5.03;;;18.90;73.60;;;;;;5048425;28;20457;-69
2023/07/07 01:52:47;;;;;;;6.70;4.53;;;18.90;73.80;;;;;;5015393;28;20471;-65
2023/07/07 01:55:19;;;;;;;4.40;4.00;;;18.70;74.00;;;;;;5040674;28;20554;-69
2023/07/07 01:57:55;;;;;;;5.17;4.67;;;18.60;74.50;;;;;;5021803;28;20468;-64
2023/07/07 02:00:24;;;;;;;4.93;4.43;;;18.40;75.00;;;;;;5032820;28;20479;-65
2023/07/07 02:02:56;;;;;;;5.37;4.77;;;18.30;75.30;;;;;;5044832;28;20486;-73
2023/07/07 02:05:26;;;;;;;4.57;4.13;;;18.30;75.40;;;;;;5028117;28;20968;-69
2023/07/07 02:07:59;;;;;;;5.20;4.63;;;18.20;75.50;;;;;;5055356;28;20547;-68
2023/07/07 02:10:27;;;;;;;5.00;4.20;;;18.20;75.70;;;;;;5032189;28;20558;-65
2023/07/07 02:12:55;;;;;;;7.60;5.33;;;18.30;75.60;;;;;;5036546;28;20457;-64
2023/07/07 02:15:24;;;;;;;5.33;4.17;;;18.40;75.40;;;;;;5037466;28;20455;-64
2023/07/07 02:17:52;;;;;;;6.07;4.87;;;18.40;75.10;;;;;;5021353;28;20465;-64
2023/07/07 02:20:21;;;;;;;5.07;4.47;;;18.40;74.70;;;;;;5033717;28;20866;-69
2023/07/07 02:22:50;;;;;;;5.10;4.60;;;18.40;74.80;;;;;;5040945;28;20530;-64
2023/07/07 02:25:18;;;;;;;4.40;4.00;;;18.40;74.70;;;;;;5044841;28;20460;-67
2023/07/07 02:27:46;;;;;;;4.20;3.83;;;18.50;74.40;;;;;;5041579;28;20542;-65
2023/07/07 02:30:14;;;;;;;5.00;4.50;;;18.60;74.00;;;;;;5044628;28;20455;-64
2023/07/07 02:32:43;;;;;;;6.30;3.97;;;18.60;74.20;;;;;;5024348;28;20515;-64
2023/07/07 02:35:12;;;;;;;4.50;4.10;;;18.50;74.20;;;;;;5037391;28;20457;-64
2023/07/07 02:37:41;;;;;;;7.77;4.83;;;18.30;74.70;;;;;;5038071;28;20488;-65
2023/07/07 02:40:10;;;;;;;5.67;4.47;;;18.20;74.90;;;;;;5030724;28;20521;-64
2023/07/07 02:42:41;;;;;;;5.87;4.73;;;18.10;75.20;;;;;;5047555;28;20472;-71
2023/07/07 02:45:10;;;;;;;4.60;4.00;;;18.10;75.00;;;;;;5041985;28;20934;-64
2023/07/07 02:47:38;;;;;;;8.73;5.33;;;18.10;74.70;;;;;;5031133;28;20478;-65
2023/07/07 02:50:07;;;;;;;8.97;5.83;;;18.00;74.90;;;;;;5039090;28;20459;-66
2023/07/07 02:52:37;;;;;;;5.23;4.47;;;18.10;74.50;;;;;;5028568;28;20467;-64
2023/07/07 02:55:07;;;;;;;6.40;4.67;;;17.90;75.10;;;;;;5034866;28;20483;-67
2023/07/07 02:57:35;;;;;;;5.73;4.30;;;17.80;75.50;;;;;;5037473;28;20462;-65
2023/07/07 03:00:09;;;;;;;5.07;4.57;;;17.70;75.80;;;;;;5054960;28;20447;-65
2023/07/07 03:02:37;;;;;;;5.30;4.80;;;17.60;76.20;;;;;;5030187;28;20463;-66
2023/07/07 03:05:06;;;;;;;5.90;5.30;;;17.60;76.70;;;;;;5042621;28;20465;-64
2023/07/07 03:07:34;;;;;;;4.93;4.53;;;17.60;77.20;;;;;;5028949;28;20464;-64
2023/07/07 03:10:04;;;;;;;5.30;4.80;;;17.70;77.00;;;;;;5025697;28;20452;-65
2023/07/07 03:12:34;;;;;;;4.53;4.13;;;17.80;76.70;;;;;;5027008;28;20525;-64
2023/07/07 03:15:04;;;;;;;6.00;5.00;;;17.80;76.70;;;;;;5030545;28;20478;-67
2023/07/07 03:17:39;;;;;;;4.90;4.40;;;17.90;76.60;;;;;;5034561;28;20464;-65
2023/07/07 03:20:10;;;;;;;5.33;4.33;;;17.90;76.50;;;;;;5016808;28;20529;-63
2023/07/07 03:22:39;;;;;;;5.43;4.90;;;17.90;76.10;;;;;;5041416;28;20463;-65
2023/07/07 03:25:09;;;;;;;5.17;4.67;;;18.00;76.10;;;;;;5027539;28;20973;-66
2023/07/07 03:27:50;;;;;;;7.80;4.70;;;18.00;76.00;;;;;;5042951;28;20464;-67
2023/07/07 03:30:27;;;;;;;5.93;5.27;;;18.00;75.70;;;;;;5021711;28;20460;-70
2023/07/07 03:33:03;;;;;;;5.60;5.10;;;18.00;75.60;;;;;;5029894;28;20461;-63
2023/07/07 03:35:33;;;;;;;5.00;4.50;;;17.90;75.60;;;;;;5021922;28;20472;-66
2023/07/07 03:38:01;;;;;;;5.07;4.60;;;17.80;76.20;;;;;;5021494;28;20579;-63
2023/07/07 03:40:30;;;;;;;4.70;4.20;;;17.80;76.20;;;;;;5026598;28;20554;-63
2023/07/07 03:42:59;;;;;;;5.87;4.63;;;17.90;76.00;;;;;;5044619;28;20464;-67
2023/07/07 03:45:30;;;;;;;5.37;4.60;;;17.80;76.00;;;;;;5020405;28;20842;-74
2023/07/07 03:48:00;;;;;;;7.47;4.90;;;17.60;76.30;;;;;;5033853;28;20517;-65
2023/07/07 03:50:29;;;;;;;6.87;5.13;;;17.50;76.50;;;;;;5027186;28;20483;-71
2023/07/07 03:52:57;;;;;;;6.33;4.83;;;17.60;76.50;;;;;;5029385;28;20470;-67
2023/07/07 03:55:26;;;;;;;5.93;4.70;;;17.60;76.30;;;;;;5047597;28;20847;-64
2023/07/07 03:57:54;;;;;;;6.77;6.17;;;17.50;76.30;;;;;;5049811;28;20463;-63
2023/07/07 04:00:25;;;;;;;5.47;4.97;;;17.50;76.30;;;;;;5022192;28;20463;-70
2023/07/07 04:02:53;;;;;;;6.27;5.03;;;17.50;76.40;;;;;;5044165;28;20553;-64
2023/07/07 04:05:22;;;;;;;7.80;5.73;;;17.60;76.20;;;;;;5017805;28;20525;-64
2023/07/07 04:07:50;;;;;;;6.47;5.33;;;17.70;75.90;;;;;;5038438;28;20459;-66
2023/07/07 04:10:18;;;;;;;6.93;5.30;;;17.90;75.50;;;;;;5035813;28;20462;-64
2023/07/07 04:12:47;;;;;;;6.80;5.33;;;18.00;75.20;;;;;;5024513;28;20490;-65
2023/07/07 04:15:18;;;;;;;6.10;5.33;;;18.00;75.10;;;;;;5022595;28;20467;-63
2023/07/07 04:17:47;;;;;;;5.17;4.67;;;18.00;75.00;;;;;;5031533;28;20499;-64
2023/07/07 04:20:16;;;;;;;5.80;5.20;;;18.00;75.20;;;;;;5032318;28;20462;-67
2023/07/07 04:22:44;;;;;;;6.10;5.50;;;17.90;75.40;;;;;;5036092;28;20467;-63
2023/07/07 04:25:15;;;;;;;7.27;5.37;;;17.90;75.60;;;;;;5019034;28;20497;-64
2023/07/07 04:27:44;;;;;;;5.97;5.37;;;17.90;75.60;;;;;;5038902;28;21181;-64
2023/07/07 04:30:13;;;;;;;10.00;6.20;;;17.80;75.80;;;;;;5036783;28;20452;-74
2023/07/07 04:32:42;;;;;;;6.70;5.10;;;17.70;76.10;;;;;;5043642;28;20459;-64
2023/07/07 04:35:11;;;;;;;7.27;5.73;;;17.80;76.20;;;;;;5047208;28;20455;-63
2023/07/07 04:37:39;;;;;;;6.83;6.00;;;17.90;76.00;;;;;;5048472;28;20494;-64
2023/07/07 04:40:08;;;;;;;5.90;5.30;;;18.00;75.90;;;;;;5039323;28;20518;-71
2023/07/07 04:42:37;;;;;;;10.40;5.83;;;18.10;75.70;;;;;;5048742;28;20486;-70
2023/07/07 04:45:05;;;;;;;6.23;5.43;;;18.10;75.60;;;;;;5039504;28;20472;-71
2023/07/07 04:47:34;;;;;;;13.00;5.47;;;18.20;75.50;;;;;;5048458;28;20467;-64
2023/07/07 04:50:02;;;;;;;7.23;5.80;;;18.30;75.30;;;;;;5044280;28;20545;-67
2023/07/07 04:52:32;;;;;;;7.00;5.90;;;18.40;75.10;;;;;;5048322;28;20451;-68
2023/07/07 04:55:00;;;;;;;6.63;6.10;;;18.40;75.30;;;;;;5039225;28;20502;-68
2023/07/07 04:57:28;;;;;;;6.07;5.17;;;18.50;75.40;;;;;;5035571;28;21061;-67
2023/07/07 04:59:56;;;;;;;5.33;4.83;;;18.60;75.00;;;;;;5044251;28;20463;-73
2023/07/07 05:02:26;;;;;;;7.97;5.10;;;18.70;74.60;;;;;;5037802;28;20456;-67
2023/07/07 05:04:54;;;;;;;16.63;5.77;;;18.70;74.60;;;;;;5034430;28;20480;-68
2023/07/07 05:07:22;;;;;;;6.77;6.17;;;18.90;74.80;;;;;;5029188;28;20457;-67
2023/07/07 05:09:52;;;;;;;5.73;5.10;;;18.90;74.50;;;;;;5045482;28;20467;-72
2023/07/07 05:12:20;;;;;;;5.97;5.33;;;18.90;74.90;;;;;;5040884;28;20460;-69
2023/07/07 05:14:48;;;;;;;6.00;5.33;;;18.90;75.40;;;;;;5047153;28;20466;-68
2023/07/07 05:17:16;;;;;;;5.33;4.83;;;18.90;75.60;;;;;;5050838;28;20458;-71
2023/07/07 05:19:45;;;;;;;6.03;5.50;;;18.90;75.60;;;;;;5039151;28;20475;-68
2023/07/07 05:22:13;;;;;;;6.53;5.93;;;18.90;75.00;;;;;;5040548;28;20944;-68
2023/07/07 05:24:41;;;;;;;6.43;5.13;;;19.00;74.60;;;;;;5036105;28;20500;-67
2023/07/07 05:27:11;;;;;;;6.83;6.23;;;19.20;73.90;;;;;;5039384;28;20525;-73
2023/07/07 05:29:39;;;;;;;7.07;5.43;;;19.40;73.50;;;;;;5039755;28;20464;-67
2023/07/07 05:32:08;;;;;;;7.17;5.77;;;19.60;73.10;;;;;;5042078;28;20539;-70
2023/07/07 05:34:36;;;;;;;6.90;6.00;;;19.80;72.30;;;;;;5038842;28;20452;-67
2023/07/07 05:37:05;;;;;;;5.13;4.73;;;19.90;72.40;;;;;;5049625;28;20487;-67
2023/07/07 05:39:34;;;;;;;5.73;5.20;;;20.10;72.10;;;;;;5042038;28;20806;-68
2023/07/07 05:42:02;;;;;;;5.33;4.70;;;20.10;72.30;;;;;;5035386;28;20466;-69
2023/07/07 05:44:31;;;;;;;6.77;4.80;;;20.20;71.50;;;;;;5042234;28;20479;-68
2023/07/07 05:47:00;;;;;;;6.30;5.57;;;20.30;71.40;;;;;;5049077;28;20476;-74
2023/07/07 05:49:28;;;;;;;6.43;5.30;;;20.40;70.60;;;;;;5044147;28;20468;-70
2023/07/07 05:51:56;;;;;;;5.73;5.10;;;20.40;70.40;;;;;;5055235;28;20471;-69
2023/07/07 05:54:24;;;;;;;5.13;4.63;;;20.50;70.00;;;;;;5033999;28;20457;-68
2023/07/07 05:56:54;;;;;;;6.80;5.60;;;20.60;69.30;;;;;;5035990;28;20467;-75
2023/07/07 05:59:23;;;;;;;4.90;4.40;;;20.60;68.70;;;;;;5039785;28;20457;-69
2023/07/07 06:01:52;;;;;;;10.00;5.13;;;20.60;68.60;;;;;;5040604;28;20463;-71
2023/07/07 06:04:21;;;;;;;4.60;4.20;;;20.70;68.80;;;;;;5052733;28;20536;-69
2023/07/07 06:06:49;;;;;;;4.93;4.10;;;20.80;68.50;;;;;;5041214;28;20469;-71
2023/07/07 06:09:18;;;;;;;6.47;5.53;;;20.80;68.10;;;;;;5045709;28;20457;-69
2023/07/07 06:11:47;;;;;;;8.57;6.50;;;20.90;68.60;;;;;;5051099;28;20485;-70
2023/07/07 06:14:16;;;;;;;7.00;5.70;;;21.00;70.10;;;;;;5044323;28;21160;-67
2023/07/07 06:16:44;;;;;;;12.63;5.70;;;21.10;69.40;;;;;;5048621;28;20981;-66
2023/07/07 06:19:13;;;;;;;6.63;6.03;;;21.10;69.60;;;;;;5047724;28;20608;-66
2023/07/07 06:21:42;;;;;;;7.53;4.90;;;21.10;68.80;;;;;;5039792;28;20536;-70
2023/07/07 06:24:10;;;;;;;5.53;5.00;;;21.20;68.80;;;;;;5056692;28;20478;-66
2023/07/07 06:26:38;;;;;;;6.30;4.60;;;21.20;68.80;;;;;;5045783;28;20533;-72
2023/07/07 06:29:06;;;;;;;8.80;4.50;;;21.30;69.20;;;;;;5048949;28;20455;-66
2023/07/07 06:31:34;;;;;;;5.00;4.50;;;21.40;68.70;;;;;;5040814;28;20466;-66
2023/07/07 06:34:03;;;;;;;9.20;6.03;;;21.50;68.10;;;;;;5050802;28;20554;-69
2023/07/07 06:36:32;;;;;;;7.67;5.20;;;21.50;67.00;;;;;;5039140;28;20467;-66
2023/07/07 06:39:00;;;;;;;10.23;4.70;;;21.40;67.90;;;;;;5025291;28;20839;-66
2023/07/07 06:41:28;;;;;;;7.00;4.50;;;21.50;67.90;;;;;;5044752;28;20474;-72
2023/07/07 06:43:57;;;;;;;6.83;5.87;;;21.50;68.10;;;;;;5037962;28;20557;-69
2023/07/07 06:46:27;;;;;;;6.40;5.77;;;21.60;67.90;;;;;;5039311;28;20463;-67
2023/07/07 06:48:56;;;;;;;6.13;5.53;;;21.70;67.30;;;;;;5035644;28;20510;-66
2023/07/07 06:51:24;;;;;;;6.10;5.50;;;21.60;67.10;;;;;;5036597;28;20525;-67
2023/07/07 06:53:54;;;;;;;6.17;5.57;;;21.70;67.20;;;;;;5025697;28;20463;-67
2023/07/07 06:56:22;;;;;;;8.37;7.40;;;21.70;67.10;;;;;;5051167;28;20458;-66
2023/07/07 06:58:50;;;;;;;6.67;5.83;;;21.70;67.30;;;;;;5038645;28;20517;-68
2023/07/07 07:01:19;;;;;;;6.23;4.67;;;21.80;67.40;;;;;;5035562;28;20521;-70
2023/07/07 07:03:47;;;;;;;5.40;5.00;;;21.90;67.40;;;;;;5036832;28;20554;-67
2023/07/07 07:06:15;;;;;;;17.57;7.10;;;22.00;66.90;;;;;;5045404;28;20463;-66
2023/07/07 07:08:44;;;;;;;11.27;5.83;;;22.10;66.80;;;;;;5041771;28;20463;-66
2023/07/07 07:11:14;;;;;;;8.83;5.10;;;22.20;66.40;;;;;;5041366;28;20955;-67
2023/07/07 07:13:43;;;;;;;15.93;6.40;;;22.30;66.90;;;;;;5045432;28;20467;-66
2023/07/07 07:16:11;;;;;;;6.10;5.13;;;22.30;68.20;;;;;;5027235;28;20463;-72
2023/07/07 07:18:39;;;;;;;11.83;5.50;;;22.30;67.20;;;;;;5035193;28;20460;-64
2023/07/07 07:21:07;;;;;;;6.37;5.77;;;22.30;67.60;;;;;;5039190;28;20501;-63
2023/07/07 07:23:36;;;;;;;7.53;5.33;;;22.50;68.10;;;;;;5051654;28;20513;-63
2023/07/07 07:26:05;;;;;;;6.60;5.67;;;22.60;68.40;;;;;;5045141;28;20566;-66
2023/07/07 07:28:34;;;;;;;8.60;5.10;;;22.70;67.60;;;;;;5038197;28;20463;-63
2023/07/07 07:31:03;;;;;;;5.43;4.60;;;22.80;67.40;;;;;;5044641;28;20464;-64
2023/07/07 07:33:31;;;;;;;8.13;5.80;;;23.00;67.30;;;;;;5044151;28;20956;-62
2023/07/07 07:35:59;;;;;;;5.30;4.80;;;23.10;66.50;;;;;;5046727;28;20465;-62
2023/07/07 07:38:29;;;;;;;6.00;5.10;;;23.20;66.40;;;;;;5046317;28;20490;-64
2023/07/07 07:40:58;;;;;;;11.30;5.47;;;23.20;66.20;;;;;;5056450;28;20595;-62
2023/07/07 07:43:26;;;;;;;5.73;4.60;;;23.30;65.70;;;;;;5043613;28;20509;-64
2023/07/07 07:45:56;;;;;;;6.63;5.97;;;23.30;66.00;;;;;;5039901;28;20999;-63
2023/07/07 07:48:25;;;;;;;5.63;5.07;;;23.30;65.90;;;;;;5035306;28;20465;-67
2023/07/07 07:50:53;;;;;;;7.27;6.03;;;23.40;65.70;;;;;;5045765;28;20548;-69
2023/07/07 07:53:22;;;;;;;7.30;5.47;;;23.50;66.20;;;;;;5043505;28;20547;-63
2023/07/07 07:55:50;;;;;;;6.43;5.40;;;23.70;66.10;;;;;;5037795;28;20953;-67
2023/07/07 07:58:18;;;;;;;6.20;5.60;;;23.80;65.70;;;;;;5038400;28;20455;-62
2023/07/07 08:00:47;;;;;;;5.10;4.60;;;23.80;64.90;;;;;;5043030;28;20457;-66
2023/07/07 08:03:16;;;;;;;5.63;4.80;;;24.00;64.90;;;;;;5041800;28;20512;-62
2023/07/07 08:05:47;;;;;;;5.60;4.90;;;24.00;64.80;;;;;;5052471;28;20477;-64
2023/07/07 08:08:15;;;;;;;5.50;4.67;;;24.10;64.80;;;;;;5048979;28;20516;-62
2023/07/07 08:10:44;;;;;;;5.50;4.93;;;24.20;64.70;;;;;;5036498;28;20927;-62
2023/07/07 08:13:29;;;;;;;5.93;4.90;;;24.20;64.80;;;;;;5041355;28;20468;-67
2023/07/07 08:16:10;;;;;;;5.10;4.70;;;24.40;64.60;;;;;;5038996;28;20455;-63
2023/07/07 08:18:39;;;;;;;5.80;5.30;;;24.30;64.10;;;;;;5034593;28;20948;-63
2023/07/07 08:21:08;;;;;;;4.80;4.30;;;24.30;64.70;;;;;;5050224;28;20459;-63
2023/07/07 08:23:37;;;;;;;6.30;4.60;;;24.40;64.40;;;;;;5046214;28;21010;-67
2023/07/07 08:26:05;;;;;;;5.00;4.50;;;24.50;64.20;;;;;;5047646;28;20480;-63
2023/07/07 08:28:36;;;;;;;4.70;4.30;;;24.60;64.10;;;;;;5035374;28;20869;-63
2023/07/07 08:31:15;;;;;;;3.43;3.23;;;24.70;64.10;;;;;;5037535;28;20557;-63
2023/07/07 08:33:46;;;;;;;26.47;9.50;;;24.80;63.60;;;;;;5046663;28;20465;-63
2023/07/07 08:36:25;;;;;;;8.37;5.67;;;24.90;63.40;;;;;;5039939;28;20456;-67
2023/07/07 08:38:53;;;;;;;6.90;5.70;;;25.00;63.30;;;;;;5027796;28;20492;-63
2023/07/07 08:41:21;;;;;;;5.17;4.50;;;25.10;63.30;;;;;;5036309;28;20459;-63
2023/07/07 08:43:50;;;;;;;5.50;5.00;;;25.10;62.90;;;;;;5043849;28;20458;-64
2023/07/07 08:46:25;;;;;;;12.83;6.57;;;25.20;63.10;;;;;;5035458;28;20474;-64
2023/07/07 08:49:01;;;;;;;7.13;5.20;;;25.30;62.60;;;;;;5025950;28;20565;-64
2023/07/07 08:51:36;;;;;;;7.10;4.63;;;25.30;62.70;;;;;;5034003;28;20473;-63
2023/07/07 08:54:10;;;;;;;4.70;4.30;;;25.40;62.50;;;;;;5036667;28;20484;-63
2023/07/07 08:56:47;;;;;;;6.20;4.87;;;25.50;62.30;;;;;;5043275;28;20488;-62
2023/07/07 08:59:27;;;;;;;6.23;4.70;;;25.60;62.30;;;;;;5038949;28;20976;-62
2023/07/07 09:02:05;;;;;;;4.87;4.23;;;25.70;62.10;;;;;;5038701;28;21131;-63
2023/07/07 09:04:47;;;;;;;6.63;5.00;;;25.70;62.00;;;;;;5039872;28;20496;-62
2023/07/07 09:07:50;;;;;;;6.47;5.80;;;25.70;61.90;;;;;;5040262;28;20474;-62
2023/07/07 09:10:39;;;;;;;8.87;5.33;;;25.80;61.80;;;;;;4951768;28;20814;-63
2023/07/07 09:13:15;;;;;;;7.53;5.73;;;25.80;61.70;;;;;;5037195;28;20802;-63
2023/07/07 09:15:49;;;;;;;9.40;4.57;;;25.90;61.70;;;;;;5034621;28;20459;-71
2023/07/07 09:18:23;;;;;;;15.20;5.60;;;25.90;61.50;;;;;;5042058;28;20465;-63
2023/07/07 09:20:59;;;;;;;8.70;5.17;;;25.90;61.40;;;;;;5036659;28;20952;-66
2023/07/07 09:23:29;;;;;;;10.63;5.43;;;26.00;61.40;;;;;;5044536;28;21010;-68
2023/07/07 09:26:02;;;;;;;7.10;4.70;;;26.00;61.30;;;;;;5048562;28;20462;-67
2023/07/07 09:28:34;;;;;;;9.70;5.23;;;26.00;61.20;;;;;;5037240;28;20463;-63
2023/07/07 09:31:16;;;;;;;7.50;4.30;;;26.00;61.20;;;;;;5050361;28;20469;-67
2023/07/07 09:33:44;;;;;;;4.93;4.10;;;26.10;61.00;;;;;;5043703;28;20476;-67
2023/07/07 09:36:17;;;;;;;7.13;4.57;;;26.10;61.10;;;;;;5043536;28;20510;-69
2023/07/07 09:38:58;;;;;;;11.80;5.67;;;26.10;61.10;;;;;;5036703;28;20534;-67
2023/07/07 09:41:38;;;;;;;5.23;4.73;;;26.10;61.10;;;;;;5043590;28;20512;-67
2023/07/07 09:44:20;;;;;;;6.63;4.40;;;26.10;61.00;;;;;;5042234;28;20470;-73
2023/07/07 09:46:56;;;;;;;10.13;5.30;;;26.20;60.90;;;;;;5031746;28;20482;-70
2023/07/07 09:49:36;;;;;;;5.07;4.60;;;26.20;60.80;;;;;;5038826;28;20520;-67
2023/07/07 09:52:17;;;;;;;5.70;4.23;;;26.20;60.70;;;;;;5040002;28;20516;-68
2023/07/07 09:54:46;;;;;;;6.70;4.37;;;26.30;60.60;;;;;;5038241;28;20930;-66
2023/07/07 09:57:23;;;;;;;7.57;4.73;;;26.30;60.50;;;;;;5035754;28;20960;-68
2023/07/07 09:59:54;;;;;;;4.43;4.03;;;26.30;60.50;;;;;;5048365;28;20454;-68
2023/07/07 10:02:24;;;;;;;6.50;4.90;;;26.30;60.40;;;;;;5041748;28;20512;-67
2023/07/07 10:04:58;;;;;;;4.60;4.00;;;26.30;60.20;;;;;;5036377;28;20461;-66
2023/07/07 10:07:32;;;;;;;7.47;4.80;;;26.30;60.10;;;;;;5033647;28;20475;-67
2023/07/07 10:10:02;;;;;;;5.43;4.30;;;26.40;60.00;;;;;;5038366;28;20513;-71
2023/07/07 10:12:30;;;;;;;5.03;4.63;;;26.40;60.00;;;;;;5041520;28;20458;-68
2023/07/07 10:15:31;;;;;;;5.57;4.63;;;26.40;59.90;;;;;;5045077;28;20459;-70
2023/07/07 10:18:06;;;;;;;5.00;4.40;;;26.40;59.80;;;;;;5032002;28;20965;-76
2023/07/07 10:20:35;;;;;;;4.90;4.40;;;26.40;59.60;;;;;;5032674;28;20471;-68
2023/07/07 10:23:04;;;;;;;5.20;4.70;;;26.50;59.50;;;;;;5043315;28;20469;-67
2023/07/07 10:25:33;;;;;;;5.20;4.70;;;26.50;59.50;;;;;;5031986;28;20453;-70
2023/07/07 10:28:02;;;;;;;4.40;4.00;;;26.50;59.50;;;;;;5045080;28;20465;-75
2023/07/07 10:30:31;;;;;;;5.03;4.63;;;26.50;59.40;;;;;;5033815;28;20455;-68
2023/07/07 10:33:00;;;;;;;4.73;4.33;;;26.50;59.40;;;;;;5041153;28;20472;-67
2023/07/07 10:35:28;;;;;;;6.70;6.00;;;26.50;59.20;;;;;;5051162;28;20466;-67
2023/07/07 10:38:03;;;;;;;7.87;5.50;;;26.60;59.20;;;;;;5016428;28;20518;-74
2023/07/07 10:40:33;;;;;;;5.40;4.60;;;26.60;59.00;;;;;;5045831;28;21231;-64
2023/07/07 10:43:03;;;;;;;5.90;5.37;;;26.60;58.90;;;;;;5019439;28;20550;-69
2023/07/07 10:45:31;;;;;;;7.80;5.27;;;26.60;58.90;;;;;;5024396;28;20462;-66
2023/07/07 10:47:59;;;;;;;6.00;5.40;;;26.60;58.80;;;;;;5040281;28;20480;-64
2023/07/07 10:50:39;;;;;;;6.00;4.53;;;26.70;58.60;;;;;;5032360;28;20504;-74
2023/07/07 10:53:24;;;;;;;5.63;4.80;;;26.70;58.60;;;;;;5040587;28;20948;-66
2023/07/07 10:56:07;;;;;;;5.77;5.23;;;26.70;58.40;;;;;;5040187;28;20461;-68
2023/07/07 10:58:59;;;;;;;5.90;4.73;;;26.70;58.30;;;;;;5030860;28;20576;-66
2023/07/07 11:01:37;;;;;;;5.50;4.83;;;26.70;58.20;;;;;;5034273;28;20465;-68
2023/07/07 11:04:40;;;;;;;4.70;4.13;;;26.80;58.00;;;;;;5053345;28;20568;-67
2023/07/07 11:07:24;;;;;;;5.80;4.83;;;26.80;57.90;;;;;;5048622;28;20470;-68
2023/07/07 11:10:02;;;;;;;5.20;4.60;;;26.80;57.90;;;;;;5046266;28;20475;-65
2023/07/07 11:12:39;;;;;;;4.90;4.43;;;26.80;57.90;;;;;;5049724;28;20471;-70
2023/07/07 11:15:19;;;;;;;5.97;5.17;;;26.90;57.80;;;;;;5028092;28;20868;-67
2023/07/07 11:18:02;;;;;;;5.40;4.10;;;26.90;57.80;;;;;;5037734;28;20492;-65
2023/07/07 11:20:53;;;;;;;7.37;4.70;;;26.90;57.60;;;;;;5041746;28;20467;-67
2023/07/07 11:23:54;;;;;;;5.27;4.57;;;26.90;57.40;;;;;;5055817;28;20479;-67
2023/07/07 11:26:31;;;;;;;5.37;4.90;;;26.90;57.20;;;;;;5045497;28;20472;-66
2023/07/07 11:29:08;;;;;;;4.80;4.30;;;26.90;57.10;;;;;;5037277;28;20481;-66
2023/07/07 11:31:52;;;;;;;5.20;4.70;;;27.00;56.90;;;;;;5036827;28;20468;-74
2023/07/07 11:34:38;;;;;;;6.17;4.13;;;27.00;56.80;;;;;;5040135;28;20479;-70
2023/07/07 11:37:20;;;;;;;6.27;4.40;;;27.00;56.70;;;;;;5039891;28;21008;-67
2023/07/07 11:40:17;;;;;;;6.17;5.37;;;26.90;56.60;;;;;;5048389;28;20468;-69
2023/07/07 11:43:10;;;;;;;5.37;4.87;;;26.90;56.60;;;;;;5051789;28;20506;-67
2023/07/07 11:45:54;;;;;;;5.40;4.63;;;26.90;56.60;;;;;;5041086;28;20488;-66
2023/07/07 11:48:33;;;;;;;5.50;4.87;;;27.00;56.60;;;;;;5035648;28;20587;-66
2023/07/07 11:51:24;;;;;;;6.33;5.07;;;27.00;56.60;;;;;;5054578;28;20464;-70
2023/07/07 11:54:07;;;;;;;7.47;5.90;;;27.00;56.60;;;;;;5044355;28;21323;-67
2023/07/07 11:56:51;;;;;;;5.50;4.90;;;27.00;56.50;;;;;;5034721;28;20457;-74
2023/07/07 11:59:36;;;;;;;6.03;5.17;;;27.10;56.50;;;;;;5047197;28;20456;-67
2023/07/07 12:02:14;;;;;;;9.90;5.23;;;27.10;56.50;;;;;;5041608;28;20461;-66
2023/07/07 12:04:44;;;;;;;7.17;5.83;;;27.20;56.60;;;;;;5052165;28;20836;-66
2023/07/07 12:07:16;;;;;;;7.50;5.97;;;27.20;56.60;;;;;;5047307;28;20464;-68
2023/07/07 12:09:52;;;;;;;6.97;5.90;;;27.30;56.70;;;;;;5044408;28;20463;-67
2023/07/07 12:12:25;;;;;;;7.50;6.57;;;27.40;56.80;;;;;;5046403;28;20548;-73
2023/07/07 12:14:58;;;;;;;12.10;7.30;;;27.60;56.70;;;;;;5042054;28;20461;-67
2023/07/07 12:17:36;;;;;;;6.93;5.73;;;27.70;56.40;;;;;;5024627;28;20971;-68
2023/07/07 12:20:11;;;;;;;10.60;6.40;;;27.90;56.20;;;;;;5046817;28;20457;-68
2023/07/07 12:22:41;;;;;;;8.57;6.10;;;28.10;55.50;;;;;;5042396;28;20459;-68
2023/07/07 12:25:23;;;;;;;10.43;6.33;;;28.30;55.00;;;;;;5052681;28;20954;-66
2023/07/07 12:27:53;;;;;;;8.37;7.03;;;28.50;54.70;;;;;;5046789;28;20842;-71
2023/07/07 12:30:24;;;;;;;9.87;6.57;;;28.70;54.30;;;;;;5039521;28;20794;-68
2023/07/07 12:32:54;;;;;;;9.40;6.97;;;28.80;54.00;;;;;;5046370;28;21367;-67
2023/07/07 12:35:28;;;;;;;8.77;6.17;;;28.90;53.50;;;;;;5026389;28;20500;-69
2023/07/07 12:37:58;;;;;;;6.30;5.67;;;29.00;53.10;;;;;;5026078;28;20490;-75
2023/07/07 12:40:26;;;;;;;9.10;5.70;;;29.00;53.20;;;;;;5042468;28;20455;-64
2023/07/07 12:43:07;;;;;;;7.27;6.20;;;29.00;53.20;;;;;;5043709;28;20462;-64
2023/07/07 12:45:39;;;;;;;8.10;5.80;;;29.00;53.20;;;;;;5046514;28;21012;-64
2023/07/07 12:48:18;;;;;;;9.17;6.43;;;29.00;52.50;;;;;;5037976;28;20595;-64
2023/07/07 12:50:48;;;;;;;8.67;6.17;;;28.90;52.50;;;;;;5045413;28;20456;-69
2023/07/07 12:53:25;;;;;;;7.67;5.27;;;28.90;52.60;;;;;;5044851;28;20948;-64
2023/07/07 12:56:01;;;;;;;6.20;4.80;;;28.90;52.50;;;;;;5043557;28;20482;-65
2023/07/07 12:58:48;;;;;;;10.10;6.70;;;28.80;52.90;;;;;;5047616;28;20525;-64
2023/07/07 13:01:36;;;;;;;8.90;6.40;;;28.80;52.80;;;;;;5042905;28;20477;-63
2023/07/07 13:04:17;;;;;;;10.83;6.20;;;28.70;52.80;;;;;;5036354;28;20511;-64
2023/07/07 13:07:06;;;;;;;8.30;6.10;;;28.70;52.90;;;;;;5046173;28;20458;-64
2023/07/07 13:09:49;;;;;;;7.80;5.87;;;28.70;53.10;;;;;;5046653;28;20473;-63
2023/07/07 13:12:41;;;;;;;6.43;4.63;;;28.70;52.00;;;;;;5048152;28;20446;-65